sensor_id;sensor_type;location;lat;lon;timestamp;temperature;humidity
21734;DHT22;11029;47.820;10.534;2022-09-30T00:01:50;7.10;88.90
21734;DHT22;11029;47.820;10.534;2022-09-30T00:04:21;7.10;88.30
21734;DHT22;11029;47.820;10.534;2022-09-30T00:06:48;7.10;89.00
21734;DHT22;11029;47.820;10.534;2022-09-30T00:09:15;7.00;88.90
21734;DHT22;11029;47.820;10.534;2022-09-30T00:11:42;7.10;89.30
21734;DHT22;11029;47.820;10.534;2022-09-30T00:14:13;7.00;88.40
21734;DHT22;11029;47.820;10.534;2022-09-30T00:16:41;6.90;89.70
21734;DHT22;11029;47.820;10.534;2022-09-30T00:19:07;7.00;90.00
21734;DHT22;11029;47.820;10.534;2022-09-30T00:21:34;7.00;90.10
21734;DHT22;11029;47.820;10.534;2022-09-30T00:24:01;7.10;89.90
21734;DHT22;11029;47.820;10.534;2022-09-30T00:26:28;7.10;89.90
21734;DHT22;11029;47.820;10.534;2022-09-30T00:28:56;7.20;89.40
21734;DHT22;11029;47.820;10.534;2022-09-30T00:31:24;7.20;89.10
21734;DHT22;11029;47.820;10.534;2022-09-30T00:33:51;7.20;88.90
21734;DHT22;11029;47.820;10.534;2022-09-30T00:36:35;7.20;88.90
21734;DHT22;11029;47.820;10.534;2022-09-30T00:39:02;7.30;88.50
21734;DHT22;11029;47.820;10.534;2022-09-30T00:41:30;7.20;88.10
21734;DHT22;11029;47.820;10.534;2022-09-30T00:43:56;7.20;88.30
21734;DHT22;11029;47.820;10.534;2022-09-30T00:48:56;7.10;88.60
21734;DHT22;11029;47.820;10.534;2022-09-30T00:51:27;7.10;89.10
21734;DHT22;11029;47.820;10.534;2022-09-30T00:53:56;7.20;89.20
21734;DHT22;11029;47.820;10.534;2022-09-30T00:56:25;7.20;89.00
21734;DHT22;11029;47.820;10.534;2022-09-30T00:58:53;7.20;88.50
21734;DHT22;11029;47.820;10.534;2022-09-30T01:01:21;7.20;88.70
21734;DHT22;11029;47.820;10.534;2022-09-30T01:04:34;7.30;88.60
21734;DHT22;11029;47.820;10.534;2022-09-30T01:06:35;7.30;87.30
21734;DHT22;11029;47.820;10.534;2022-09-30T01:09:02;7.00;88.50
21734;DHT22;11029;47.820;10.534;2022-09-30T01:11:28;7.10;89.10
21734;DHT22;11029;47.820;10.534;2022-09-30T01:14:00;7.10;88.50
21734;DHT22;11029;47.820;10.534;2022-09-30T01:19:24;7.10;88.90
21734;DHT22;11029;47.820;10.534;2022-09-30T01:27:31;7.20;88.70
21734;DHT22;11029;47.820;10.534;2022-09-30T01:32:21;7.20;87.20
21734;DHT22;11029;47.820;10.534;2022-09-30T01:37:49;7.10;88.10
21734;DHT22;11029;47.820;10.534;2022-09-30T01:40:25;7.10;88.50
21734;DHT22;11029;47.820;10.534;2022-09-30T01:43:04;7.10;88.70
21734;DHT22;11029;47.820;10.534;2022-09-30T01:45:43;7.10;89.00
21734;DHT22;11029;47.820;10.534;2022-09-30T01:51:06;7.10;88.50
21734;DHT22;11029;47.820;10.534;2022-09-30T01:56:12;7.10;88.70
21734;DHT22;11029;47.820;10.534;2022-09-30T01:58:43;7.00;88.80
21734;DHT22;11029;47.820;10.534;2022-09-30T02:01:14;7.10;89.30
21734;DHT22;11029;47.820;10.534;2022-09-30T02:03:44;7.10;89.00
21734;DHT22;11029;47.820;10.534;2022-09-30T02:06:20;7.20;89.30
21734;DHT22;11029;47.820;10.534;2022-09-30T02:08:53;7.10;88.80
21734;DHT22;11029;47.820;10.534;2022-09-30T02:11:26;7.10;89.20
21734;DHT22;11029;47.820;10.534;2022-09-30T02:14:08;7.20;88.80
21734;DHT22;11029;47.820;10.534;2022-09-30T02:16:37;7.10;88.20
21734;DHT22;11029;47.820;10.534;2022-09-30T02:19:10;7.10;87.60
21734;DHT22;11029;47.820;10.534;2022-09-30T02:21:39;6.90;87.80
21734;DHT22;11029;47.820;10.534;2022-09-30T02:24:09;6.80;89.20
21734;DHT22;11029;47.820;10.534;2022-09-30T02:26:38;6.80;88.90
21734;DHT22;11029;47.820;10.534;2022-09-30T02:31:33;6.70;89.10
21734;DHT22;11029;47.820;10.534;2022-09-30T02:34:14;6.70;89.10
21734;DHT22;11029;47.820;10.534;2022-09-30T02:36:46;6.70;89.00
21734;DHT22;11029;47.820;10.534;2022-09-30T02:39:21;6.70;89.30
21734;DHT22;11029;47.820;10.534;2022-09-30T02:41:51;6.70;88.60
21734;DHT22;11029;47.820;10.534;2022-09-30T02:44:19;6.70;88.70
21734;DHT22;11029;47.820;10.534;2022-09-30T02:46:51;6.70;89.10
21734;DHT22;11029;47.820;10.534;2022-09-30T02:49:27;6.80;88.50
21734;DHT22;11029;47.820;10.534;2022-09-30T02:52:15;6.70;87.70
21734;DHT22;11029;47.820;10.534;2022-09-30T02:57:35;6.70;87.20
21734;DHT22;11029;47.820;10.534;2022-09-30T03:00:03;6.60;88.40
21734;DHT22;11029;47.820;10.534;2022-09-30T03:02:37;6.60;88.40
21734;DHT22;11029;47.820;10.534;2022-09-30T03:05:04;6.60;88.70
21734;DHT22;11029;47.820;10.534;2022-09-30T03:07:30;6.70;88.40
21734;DHT22;11029;47.820;10.534;2022-09-30T03:09:57;6.60;87.80
21734;DHT22;11029;47.820;10.534;2022-09-30T03:12:49;6.60;89.20
21734;DHT22;11029;47.820;10.534;2022-09-30T03:17:44;6.70;89.10
21734;DHT22;11029;47.820;10.534;2022-09-30T03:26:09;6.60;88.80
21734;DHT22;11029;47.820;10.534;2022-09-30T03:30:37;6.50;88.70
21734;DHT22;11029;47.820;10.534;2022-09-30T03:41:03;6.50;87.90
21734;DHT22;11029;47.820;10.534;2022-09-30T03:43:32;6.40;88.40
21734;DHT22;11029;47.820;10.534;2022-09-30T03:48:47;6.40;88.50
21734;DHT22;11029;47.820;10.534;2022-09-30T03:51:15;6.40;88.90
21734;DHT22;11029;47.820;10.534;2022-09-30T03:53:42;6.50;88.80
21734;DHT22;11029;47.820;10.534;2022-09-30T03:56:12;6.50;88.50
21734;DHT22;11029;47.820;10.534;2022-09-30T03:58:42;6.50;88.70
21734;DHT22;11029;47.820;10.534;2022-09-30T04:01:16;6.50;88.50
21734;DHT22;11029;47.820;10.534;2022-09-30T04:03:46;6.50;88.40
21734;DHT22;11029;47.820;10.534;2022-09-30T04:06:13;6.50;87.90
21734;DHT22;11029;47.820;10.534;2022-09-30T04:08:40;6.50;88.20
21734;DHT22;11029;47.820;10.534;2022-09-30T04:11:06;6.50;88.10
21734;DHT22;11029;47.820;10.534;2022-09-30T04:13:33;6.40;88.10
21734;DHT22;11029;47.820;10.534;2022-09-30T04:16:00;6.40;88.00
21734;DHT22;11029;47.820;10.534;2022-09-30T04:18:27;6.40;88.10
21734;DHT22;11029;47.820;10.534;2022-09-30T04:20:56;6.40;88.20
21734;DHT22;11029;47.820;10.534;2022-09-30T04:23:22;6.40;88.90
21734;DHT22;11029;47.820;10.534;2022-09-30T04:25:53;6.40;88.60
21734;DHT22;11029;47.820;10.534;2022-09-30T04:28:20;6.50;88.60
21734;DHT22;11029;47.820;10.534;2022-09-30T04:30:47;6.50;88.20
21734;DHT22;11029;47.820;10.534;2022-09-30T04:33:14;6.50;88.20
21734;DHT22;11029;47.820;10.534;2022-09-30T04:35:41;6.50;88.40
21734;DHT22;11029;47.820;10.534;2022-09-30T04:38:07;6.50;88.10
21734;DHT22;11029;47.820;10.534;2022-09-30T04:40:37;6.60;88.20
21734;DHT22;11029;47.820;10.534;2022-09-30T04:43:05;6.60;87.90
21734;DHT22;11029;47.820;10.534;2022-09-30T04:45:32;6.60;87.90
21734;DHT22;11029;47.820;10.534;2022-09-30T04:47:59;6.60;87.40
21734;DHT22;11029;47.820;10.534;2022-09-30T04:50:25;6.60;87.70
21734;DHT22;11029;47.820;10.534;2022-09-30T04:52:52;6.60;87.30
21734;DHT22;11029;47.820;10.534;2022-09-30T04:55:21;6.60;87.00
21734;DHT22;11029;47.820;10.534;2022-09-30T04:57:48;6.60;87.20
21734;DHT22;11029;47.820;10.534;2022-09-30T05:00:15;6.60;87.60
21734;DHT22;11029;47.820;10.534;2022-09-30T05:02:42;6.60;87.30
21734;DHT22;11029;47.820;10.534;2022-09-30T05:05:10;6.60;87.30
21734;DHT22;11029;47.820;10.534;2022-09-30T05:07:37;6.60;87.30
21734;DHT22;11029;47.820;10.534;2022-09-30T05:10:03;6.60;87.70
21734;DHT22;11029;47.820;10.534;2022-09-30T05:12:30;6.60;87.50
21734;DHT22;11029;47.820;10.534;2022-09-30T05:14:57;6.60;87.70
21734;DHT22;11029;47.820;10.534;2022-09-30T05:17:24;6.50;87.30
21734;DHT22;11029;47.820;10.534;2022-09-30T05:19:50;6.50;87.60
21734;DHT22;11029;47.820;10.534;2022-09-30T05:22:17;6.50;87.30
21734;DHT22;11029;47.820;10.534;2022-09-30T05:24:43;6.50;87.70
21734;DHT22;11029;47.820;10.534;2022-09-30T05:27:10;6.50;87.00
21734;DHT22;11029;47.820;10.534;2022-09-30T05:29:37;6.50;87.40
21734;DHT22;11029;47.820;10.534;2022-09-30T05:32:04;6.50;87.70
21734;DHT22;11029;47.820;10.534;2022-09-30T05:34:31;6.50;87.70
21734;DHT22;11029;47.820;10.534;2022-09-30T05:36:58;6.50;87.10
21734;DHT22;11029;47.820;10.534;2022-09-30T05:39:24;6.50;86.90
21734;DHT22;11029;47.820;10.534;2022-09-30T05:41:51;6.50;86.20
21734;DHT22;11029;47.820;10.534;2022-09-30T05:44:17;6.40;86.90
21734;DHT22;11029;47.820;10.534;2022-09-30T05:46:44;6.40;86.70
21734;DHT22;11029;47.820;10.534;2022-09-30T05:49:11;6.40;87.40
21734;DHT22;11029;47.820;10.534;2022-09-30T05:51:38;6.40;87.70
21734;DHT22;11029;47.820;10.534;2022-09-30T05:54:04;6.40;86.80
21734;DHT22;11029;47.820;10.534;2022-09-30T05:56:31;6.40;86.90
21734;DHT22;11029;47.820;10.534;2022-09-30T05:59:00;6.30;87.60
21734;DHT22;11029;47.820;10.534;2022-09-30T06:01:26;6.30;87.20
21734;DHT22;11029;47.820;10.534;2022-09-30T06:03:53;6.30;87.60
21734;DHT22;11029;47.820;10.534;2022-09-30T06:06:20;6.30;88.50
21734;DHT22;11029;47.820;10.534;2022-09-30T06:08:46;6.40;88.50
21734;DHT22;11029;47.820;10.534;2022-09-30T06:11:14;6.50;87.70
21734;DHT22;11029;47.820;10.534;2022-09-30T06:13:41;6.50;86.80
21734;DHT22;11029;47.820;10.534;2022-09-30T06:16:08;6.50;87.30
21734;DHT22;11029;47.820;10.534;2022-09-30T06:18:35;6.50;87.40
21734;DHT22;11029;47.820;10.534;2022-09-30T06:21:04;6.50;87.50
21734;DHT22;11029;47.820;10.534;2022-09-30T06:23:31;6.50;86.70
21734;DHT22;11029;47.820;10.534;2022-09-30T06:26:01;6.50;87.10
21734;DHT22;11029;47.820;10.534;2022-09-30T06:28:27;6.40;87.30
21734;DHT22;11029;47.820;10.534;2022-09-30T06:30:54;6.40;86.70
21734;DHT22;11029;47.820;10.534;2022-09-30T06:33:21;6.20;87.50
21734;DHT22;11029;47.820;10.534;2022-09-30T06:35:49;6.20;88.40
21734;DHT22;11029;47.820;10.534;2022-09-30T06:38:15;6.20;88.50
21734;DHT22;11029;47.820;10.534;2022-09-30T06:40:43;6.20;88.70
21734;DHT22;11029;47.820;10.534;2022-09-30T06:43:09;6.40;89.40
21734;DHT22;11029;47.820;10.534;2022-09-30T06:45:37;6.50;88.90
21734;DHT22;11029;47.820;10.534;2022-09-30T06:48:04;6.60;88.10
21734;DHT22;11029;47.820;10.534;2022-09-30T06:50:31;6.60;88.10
21734;DHT22;11029;47.820;10.534;2022-09-30T06:52:59;6.70;87.50
21734;DHT22;11029;47.820;10.534;2022-09-30T06:55:26;6.70;87.60
21734;DHT22;11029;47.820;10.534;2022-09-30T06:57:53;6.80;87.60
21734;DHT22;11029;47.820;10.534;2022-09-30T07:00:22;6.90;87.80
21734;DHT22;11029;47.820;10.534;2022-09-30T07:02:49;6.90;87.00
21734;DHT22;11029;47.820;10.534;2022-09-30T07:05:15;7.00;87.00
21734;DHT22;11029;47.820;10.534;2022-09-30T07:07:42;7.10;86.60
21734;DHT22;11029;47.820;10.534;2022-09-30T07:10:09;7.10;86.40
21734;DHT22;11029;47.820;10.534;2022-09-30T07:12:36;7.10;86.60
21734;DHT22;11029;47.820;10.534;2022-09-30T07:15:03;7.10;86.30
21734;DHT22;11029;47.820;10.534;2022-09-30T07:17:30;7.10;86.50
21734;DHT22;11029;47.820;10.534;2022-09-30T07:19:57;7.10;86.20
21734;DHT22;11029;47.820;10.534;2022-09-30T07:22:24;7.10;86.20
21734;DHT22;11029;47.820;10.534;2022-09-30T07:24:58;7.10;86.30
21734;DHT22;11029;47.820;10.534;2022-09-30T07:27:25;7.10;86.60
21734;DHT22;11029;47.820;10.534;2022-09-30T07:29:53;7.20;86.20
21734;DHT22;11029;47.820;10.534;2022-09-30T07:32:35;7.30;86.50
21734;DHT22;11029;47.820;10.534;2022-09-30T07:35:02;7.40;85.80
21734;DHT22;11029;47.820;10.534;2022-09-30T07:37:28;7.40;85.50
21734;DHT22;11029;47.820;10.534;2022-09-30T07:40:04;7.40;85.20
21734;DHT22;11029;47.820;10.534;2022-09-30T07:42:32;7.50;85.00
21734;DHT22;11029;47.820;10.534;2022-09-30T07:44:59;7.50;84.90
21734;DHT22;11029;47.820;10.534;2022-09-30T07:47:26;7.60;84.90
21734;DHT22;11029;47.820;10.534;2022-09-30T07:49:52;7.70;84.60
21734;DHT22;11029;47.820;10.534;2022-09-30T07:52:19;7.70;84.60
21734;DHT22;11029;47.820;10.534;2022-09-30T07:54:46;7.80;84.40
21734;DHT22;11029;47.820;10.534;2022-09-30T07:57:16;7.80;84.40
21734;DHT22;11029;47.820;10.534;2022-09-30T07:59:44;7.90;84.10
21734;DHT22;11029;47.820;10.534;2022-09-30T08:02:15;8.00;83.10
21734;DHT22;11029;47.820;10.534;2022-09-30T08:04:42;8.00;82.80
21734;DHT22;11029;47.820;10.534;2022-09-30T08:07:11;8.00;82.70
21734;DHT22;11029;47.820;10.534;2022-09-30T08:09:37;8.00;82.50
21734;DHT22;11029;47.820;10.534;2022-09-30T08:12:04;8.10;82.80
21734;DHT22;11029;47.820;10.534;2022-09-30T08:14:31;8.10;82.50
21734;DHT22;11029;47.820;10.534;2022-09-30T08:16:58;8.20;82.30
21734;DHT22;11029;47.820;10.534;2022-09-30T08:19:27;8.20;82.30
21734;DHT22;11029;47.820;10.534;2022-09-30T08:21:54;8.30;82.90
21734;DHT22;11029;47.820;10.534;2022-09-30T08:24:21;8.40;82.40
21734;DHT22;11029;47.820;10.534;2022-09-30T08:26:49;8.50;81.40
21734;DHT22;11029;47.820;10.534;2022-09-30T08:29:15;8.50;81.70
21734;DHT22;11029;47.820;10.534;2022-09-30T08:31:50;8.60;81.70
21734;DHT22;11029;47.820;10.534;2022-09-30T08:34:17;8.70;81.70
21734;DHT22;11029;47.820;10.534;2022-09-30T08:36:44;8.80;81.20
21734;DHT22;11029;47.820;10.534;2022-09-30T08:39:12;8.90;80.60
21734;DHT22;11029;47.820;10.534;2022-09-30T08:47:07;8.80;80.20
21734;DHT22;11029;47.820;10.534;2022-09-30T08:52:44;8.70;80.00
21734;DHT22;11029;47.820;10.534;2022-09-30T08:55:18;8.80;80.90
21734;DHT22;11029;47.820;10.534;2022-09-30T08:57:46;8.80;79.50
21734;DHT22;11029;47.820;10.534;2022-09-30T09:00:14;8.90;80.20
21734;DHT22;11029;47.820;10.534;2022-09-30T09:05:27;8.80;80.40
21734;DHT22;11029;47.820;10.534;2022-09-30T09:10:35;8.90;80.30
21734;DHT22;11029;47.820;10.534;2022-09-30T09:13:18;8.90;80.50
21734;DHT22;11029;47.820;10.534;2022-09-30T09:23:39;8.90;81.30
21734;DHT22;11029;47.820;10.534;2022-09-30T09:26:07;8.90;81.20
21734;DHT22;11029;47.820;10.534;2022-09-30T09:28:36;8.90;81.10
21734;DHT22;11029;47.820;10.534;2022-09-30T09:31:07;8.80;81.20
21734;DHT22;11029;47.820;10.534;2022-09-30T09:33:37;8.80;81.50
21734;DHT22;11029;47.820;10.534;2022-09-30T09:38:56;8.90;81.60
21734;DHT22;11029;47.820;10.534;2022-09-30T09:46:41;9.10;81.40
21734;DHT22;11029;47.820;10.534;2022-09-30T09:51:40;9.10;82.20
21734;DHT22;11029;47.820;10.534;2022-09-30T09:54:08;9.10;81.60
21734;DHT22;11029;47.820;10.534;2022-09-30T09:56:36;9.20;81.90
21734;DHT22;11029;47.820;10.534;2022-09-30T10:06:54;9.20;81.20
21734;DHT22;11029;47.820;10.534;2022-09-30T10:09:24;9.30;81.30
21734;DHT22;11029;47.820;10.534;2022-09-30T10:14:33;9.30;81.70
21734;DHT22;11029;47.820;10.534;2022-09-30T10:17:02;9.30;80.60
21734;DHT22;11029;47.820;10.534;2022-09-30T10:19:30;9.40;81.10
21734;DHT22;11029;47.820;10.534;2022-09-30T10:24:34;9.60;81.30
21734;DHT22;11029;47.820;10.534;2022-09-30T10:27:01;9.60;80.70
21734;DHT22;11029;47.820;10.534;2022-09-30T10:31:55;9.70;80.60
21734;DHT22;11029;47.820;10.534;2022-09-30T10:34:29;9.70;80.70
21734;DHT22;11029;47.820;10.534;2022-09-30T10:36:58;9.70;80.20
21734;DHT22;11029;47.820;10.534;2022-09-30T10:39:26;9.70;80.30
21734;DHT22;11029;47.820;10.534;2022-09-30T10:44:44;9.80;80.60
21734;DHT22;11029;47.820;10.534;2022-09-30T10:47:15;9.90;80.00
21734;DHT22;11029;47.820;10.534;2022-09-30T10:52:15;9.90;80.00
21734;DHT22;11029;47.820;10.534;2022-09-30T10:57:21;10.00;80.10
21734;DHT22;11029;47.820;10.534;2022-09-30T10:59:49;10.10;79.70
21734;DHT22;11029;47.820;10.534;2022-09-30T11:07:41;10.10;77.20
21734;DHT22;11029;47.820;10.534;2022-09-30T11:13:29;10.20;77.90
21734;DHT22;11029;47.820;10.534;2022-09-30T11:16:05;10.40;77.90
21734;DHT22;11029;47.820;10.534;2022-09-30T11:18:44;10.50;77.70
21734;DHT22;11029;47.820;10.534;2022-09-30T11:21:26;10.50;77.70
21734;DHT22;11029;47.820;10.534;2022-09-30T11:26:49;10.70;76.80
21734;DHT22;11029;47.820;10.534;2022-09-30T11:40:07;11.10;74.30
21734;DHT22;11029;47.820;10.534;2022-09-30T11:42:36;11.20;74.20
21734;DHT22;11029;47.820;10.534;2022-09-30T11:45:20;11.20;73.10
21734;DHT22;11029;47.820;10.534;2022-09-30T11:48:32;11.20;74.20
21734;DHT22;11029;47.820;10.534;2022-09-30T11:51:03;11.30;73.60
21734;DHT22;11029;47.820;10.534;2022-09-30T11:53:41;11.30;73.50
21734;DHT22;11029;47.820;10.534;2022-09-30T11:58:56;11.30;73.50
21734;DHT22;11029;47.820;10.534;2022-09-30T12:01:26;11.20;73.30
21734;DHT22;11029;47.820;10.534;2022-09-30T12:06:25;11.30;73.60
21734;DHT22;11029;47.820;10.534;2022-09-30T12:08:58;11.20;73.20
21734;DHT22;11029;47.820;10.534;2022-09-30T12:13:59;11.30;72.10
21734;DHT22;11029;47.820;10.534;2022-09-30T12:16:29;11.30;72.80
21734;DHT22;11029;47.820;10.534;2022-09-30T12:18:59;11.40;72.00
21734;DHT22;11029;47.820;10.534;2022-09-30T12:24:03;11.20;73.00
21734;DHT22;11029;47.820;10.534;2022-09-30T12:26:31;11.10;74.40
21734;DHT22;11029;47.820;10.534;2022-09-30T12:29:11;11.00;74.80
21734;DHT22;11029;47.820;10.534;2022-09-30T12:42:35;10.70;75.50
21734;DHT22;11029;47.820;10.534;2022-09-30T12:45:17;10.70;75.50
21734;DHT22;11029;47.820;10.534;2022-09-30T12:47:50;10.70;75.10
21734;DHT22;11029;47.820;10.534;2022-09-30T12:50:19;10.70;75.80
21734;DHT22;11029;47.820;10.534;2022-09-30T12:52:46;10.80;75.60
21734;DHT22;11029;47.820;10.534;2022-09-30T12:55:21;11.00;75.20
21734;DHT22;11029;47.820;10.534;2022-09-30T12:57:51;11.10;75.00
21734;DHT22;11029;47.820;10.534;2022-09-30T13:00:19;11.20;74.70
21734;DHT22;11029;47.820;10.534;2022-09-30T13:02:47;11.20;74.60
21734;DHT22;11029;47.820;10.534;2022-09-30T13:15:39;11.00;73.40
21734;DHT22;11029;47.820;10.534;2022-09-30T13:20:49;11.10;74.50
21734;DHT22;11029;47.820;10.534;2022-09-30T13:26:01;11.20;73.60
21734;DHT22;11029;47.820;10.534;2022-09-30T13:28:29;11.20;73.30
21734;DHT22;11029;47.820;10.534;2022-09-30T13:31:12;11.20;73.80
21734;DHT22;11029;47.820;10.534;2022-09-30T13:33:41;11.20;73.60
21734;DHT22;11029;47.820;10.534;2022-09-30T13:36:16;11.20;72.60
21734;DHT22;11029;47.820;10.534;2022-09-30T13:38:43;11.20;73.10
21734;DHT22;11029;47.820;10.534;2022-09-30T13:41:17;11.10;74.00
21734;DHT22;11029;47.820;10.534;2022-09-30T13:43:56;11.10;73.80
21734;DHT22;11029;47.820;10.534;2022-09-30T13:46:33;11.20;72.70
21734;DHT22;11029;47.820;10.534;2022-09-30T13:51:30;11.20;72.90
21734;DHT22;11029;47.820;10.534;2022-09-30T13:53:59;11.20;72.70
21734;DHT22;11029;47.820;10.534;2022-09-30T13:56:33;11.20;73.60
21734;DHT22;11029;47.820;10.534;2022-09-30T13:59:21;11.40;73.00
21734;DHT22;11029;47.820;10.534;2022-09-30T14:05:02;12.10;70.10
21734;DHT22;11029;47.820;10.534;2022-09-30T14:07:40;12.50;69.60
21734;DHT22;11029;47.820;10.534;2022-09-30T14:10:19;13.00;68.30
21734;DHT22;11029;47.820;10.534;2022-09-30T14:21:29;13.50;64.40
21734;DHT22;11029;47.820;10.534;2022-09-30T14:23:59;13.10;65.00
21734;DHT22;11029;47.820;10.534;2022-09-30T14:30:08;12.30;67.70
21734;DHT22;11029;47.820;10.534;2022-09-30T14:35:38;11.80;68.50
21734;DHT22;11029;47.820;10.534;2022-09-30T14:38:21;11.70;70.00
21734;DHT22;11029;47.820;10.534;2022-09-30T14:40:52;11.50;70.50
21734;DHT22;11029;47.820;10.534;2022-09-30T14:43:24;11.50;71.30
21734;DHT22;11029;47.820;10.534;2022-09-30T14:45:55;11.50;71.60
21734;DHT22;11029;47.820;10.534;2022-09-30T14:48:28;11.50;72.10
21734;DHT22;11029;47.820;10.534;2022-09-30T14:51:11;11.40;72.60
21734;DHT22;11029;47.820;10.534;2022-09-30T14:53:57;11.30;72.50
21734;DHT22;11029;47.820;10.534;2022-09-30T14:56:28;11.20;73.00
21734;DHT22;11029;47.820;10.534;2022-09-30T14:59:14;11.10;73.50
21734;DHT22;11029;47.820;10.534;2022-09-30T15:01:42;11.00;73.00
21734;DHT22;11029;47.820;10.534;2022-09-30T15:04:20;10.90;73.60
21734;DHT22;11029;47.820;10.534;2022-09-30T15:06:49;10.80;73.70
21734;DHT22;11029;47.820;10.534;2022-09-30T15:09:35;10.80;73.90
21734;DHT22;11029;47.820;10.534;2022-09-30T15:12:22;10.80;74.00
21734;DHT22;11029;47.820;10.534;2022-09-30T15:14:53;10.80;74.40
21734;DHT22;11029;47.820;10.534;2022-09-30T15:17:26;10.70;74.90
21734;DHT22;11029;47.820;10.534;2022-09-30T15:19:55;10.70;75.20
21734;DHT22;11029;47.820;10.534;2022-09-30T15:22:26;10.60;76.00
21734;DHT22;11029;47.820;10.534;2022-09-30T15:24:56;10.60;76.20
21734;DHT22;11029;47.820;10.534;2022-09-30T15:27:27;10.60;76.40
21734;DHT22;11029;47.820;10.534;2022-09-30T15:29:57;10.60;76.60
21734;DHT22;11029;47.820;10.534;2022-09-30T15:32:26;10.60;77.30
21734;DHT22;11029;47.820;10.534;2022-09-30T15:34:54;10.60;77.20
21734;DHT22;11029;47.820;10.534;2022-09-30T15:37:25;10.50;77.20
21734;DHT22;11029;47.820;10.534;2022-09-30T15:40:00;10.50;77.30
21734;DHT22;11029;47.820;10.534;2022-09-30T15:42:52;10.50;77.60
21734;DHT22;11029;47.820;10.534;2022-09-30T15:45:38;10.50;77.60
21734;DHT22;11029;47.820;10.534;2022-09-30T15:50:48;10.40;78.20
21734;DHT22;11029;47.820;10.534;2022-09-30T15:56:15;10.40;78.40
21734;DHT22;11029;47.820;10.534;2022-09-30T15:58:54;10.40;78.30
21734;DHT22;11029;47.820;10.534;2022-09-30T16:01:31;10.30;78.50
21734;DHT22;11029;47.820;10.534;2022-09-30T16:04:05;10.30;78.70
21734;DHT22;11029;47.820;10.534;2022-09-30T16:06:51;10.30;78.70
21734;DHT22;11029;47.820;10.534;2022-09-30T16:14:45;10.20;79.80
21734;DHT22;11029;47.820;10.534;2022-09-30T16:19:58;10.20;80.40
21734;DHT22;11029;47.820;10.534;2022-09-30T16:22:47;10.20;80.50
21734;DHT22;11029;47.820;10.534;2022-09-30T16:27:59;10.20;80.50
21734;DHT22;11029;47.820;10.534;2022-09-30T16:30:28;10.10;80.50
21734;DHT22;11029;47.820;10.534;2022-09-30T16:32:57;10.00;81.30
21734;DHT22;11029;47.820;10.534;2022-09-30T16:35:27;9.90;81.90
21734;DHT22;11029;47.820;10.534;2022-09-30T16:38:02;10.00;81.90
21734;DHT22;11029;47.820;10.534;2022-09-30T16:40:31;9.90;81.90
21734;DHT22;11029;47.820;10.534;2022-09-30T16:42:58;9.90;81.80
21734;DHT22;11029;47.820;10.534;2022-09-30T16:45:26;9.80;82.20
21734;DHT22;11029;47.820;10.534;2022-09-30T16:47:56;9.80;82.20
21734;DHT22;11029;47.820;10.534;2022-09-30T16:52:49;9.80;82.20
21734;DHT22;11029;47.820;10.534;2022-09-30T16:55:16;9.80;82.30
21734;DHT22;11029;47.820;10.534;2022-09-30T16:57:43;9.80;82.50
21734;DHT22;11029;47.820;10.534;2022-09-30T17:00:15;9.90;82.10
21734;DHT22;11029;47.820;10.534;2022-09-30T17:02:48;9.80;82.10
21734;DHT22;11029;47.820;10.534;2022-09-30T17:05:18;9.90;82.20
21734;DHT22;11029;47.820;10.534;2022-09-30T17:07:55;9.80;82.20
21734;DHT22;11029;47.820;10.534;2022-09-30T17:10:31;9.80;82.30
21734;DHT22;11029;47.820;10.534;2022-09-30T17:12:59;9.80;82.30
21734;DHT22;11029;47.820;10.534;2022-09-30T17:15:27;9.80;82.20
21734;DHT22;11029;47.820;10.534;2022-09-30T17:17:55;9.80;82.30
21734;DHT22;11029;47.820;10.534;2022-09-30T17:20:22;9.80;82.60
21734;DHT22;11029;47.820;10.534;2022-09-30T17:22:49;9.80;82.30
21734;DHT22;11029;47.820;10.534;2022-09-30T17:25:17;9.80;82.50
21734;DHT22;11029;47.820;10.534;2022-09-30T17:27:46;9.80;82.80
21734;DHT22;11029;47.820;10.534;2022-09-30T17:30:17;9.80;83.00
21734;DHT22;11029;47.820;10.534;2022-09-30T17:32:44;9.80;82.90
21734;DHT22;11029;47.820;10.534;2022-09-30T17:35:11;9.80;83.10
21734;DHT22;11029;47.820;10.534;2022-09-30T17:37:38;9.80;83.40
21734;DHT22;11029;47.820;10.534;2022-09-30T17:40:11;9.80;83.10
21734;DHT22;11029;47.820;10.534;2022-09-30T17:42:56;9.80;83.00
21734;DHT22;11029;47.820;10.534;2022-09-30T17:45:43;9.80;83.20
21734;DHT22;11029;47.820;10.534;2022-09-30T17:48:13;9.80;83.30
21734;DHT22;11029;47.820;10.534;2022-09-30T17:50:42;9.80;83.40
21734;DHT22;11029;47.820;10.534;2022-09-30T17:53:13;9.80;83.40
21734;DHT22;11029;47.820;10.534;2022-09-30T17:55:45;9.80;83.60
21734;DHT22;11029;47.820;10.534;2022-09-30T17:58:16;9.70;84.00
21734;DHT22;11029;47.820;10.534;2022-09-30T18:00:43;9.70;84.20
21734;DHT22;11029;47.820;10.534;2022-09-30T18:03:11;9.70;84.10
21734;DHT22;11029;47.820;10.534;2022-09-30T18:05:38;9.80;84.30
21734;DHT22;11029;47.820;10.534;2022-09-30T18:08:05;9.70;83.80
21734;DHT22;11029;47.820;10.534;2022-09-30T18:10:35;9.70;84.00
21734;DHT22;11029;47.820;10.534;2022-09-30T18:13:01;9.70;83.90
21734;DHT22;11029;47.820;10.534;2022-09-30T18:15:28;9.70;83.70
21734;DHT22;11029;47.820;10.534;2022-09-30T18:17:55;9.60;83.80
21734;DHT22;11029;47.820;10.534;2022-09-30T18:20:22;9.60;83.80
21734;DHT22;11029;47.820;10.534;2022-09-30T18:22:51;9.40;84.80
21734;DHT22;11029;47.820;10.534;2022-09-30T18:25:18;9.50;85.10
21734;DHT22;11029;47.820;10.534;2022-09-30T18:27:58;9.50;84.60
21734;DHT22;11029;47.820;10.534;2022-09-30T18:30:25;9.50;84.80
21734;DHT22;11029;47.820;10.534;2022-09-30T18:32:53;9.50;84.40
21734;DHT22;11029;47.820;10.534;2022-09-30T18:35:21;9.50;84.50
21734;DHT22;11029;47.820;10.534;2022-09-30T18:37:50;9.50;84.50
21734;DHT22;11029;47.820;10.534;2022-09-30T18:40:23;9.50;84.60
21734;DHT22;11029;47.820;10.534;2022-09-30T18:42:55;9.50;84.90
21734;DHT22;11029;47.820;10.534;2022-09-30T18:45:29;9.40;84.80
21734;DHT22;11029;47.820;10.534;2022-09-30T18:47:58;9.50;85.10
21734;DHT22;11029;47.820;10.534;2022-09-30T18:50:27;9.50;85.20
21734;DHT22;11029;47.820;10.534;2022-09-30T18:52:54;9.50;84.90
21734;DHT22;11029;47.820;10.534;2022-09-30T18:55:21;9.40;85.10
21734;DHT22;11029;47.820;10.534;2022-09-30T18:57:51;9.40;85.00
21734;DHT22;11029;47.820;10.534;2022-09-30T19:00:18;9.40;85.20
21734;DHT22;11029;47.820;10.534;2022-09-30T19:02:46;9.30;85.00
21734;DHT22;11029;47.820;10.534;2022-09-30T19:05:13;9.30;85.60
21734;DHT22;11029;47.820;10.534;2022-09-30T19:07:40;9.40;85.80
21734;DHT22;11029;47.820;10.534;2022-09-30T19:10:08;9.30;85.40